Hlavní strana
METAR-TAF:

METAR-TAF

Letiště :

Perm, Rusko

zeměpisná šířka: 58-00N, zeměpisná délka: 056-15E, výška: 170 m

Aktuální stav počasí

Zpráva byla vytvořena před 40 minutami, v 15:30 UTC
Jihovýchodní vítr 8 kt
Teplota 11°C
Vlhkost vzduchu 66%
Tlak 1022 hPa
Viditelnost 10 km a více
slabý déšť

METAR: USPP 241530Z 14004MPS 9999 -RA NSC 11/05 Q1022 R21/090060 NOSIG RMK QFE755

Čas: 21:10 (16:10 UTC)

Předpověď počasí

Zpráva byla vytvořena před 2 hodinami a 15 minutami, v 13:55 UTC
Předpověď platná od 24 v 15 UTC do 25 v 15 UTC
Východojihovýchodní vítr 6 kt s nárazy do 25 kt
Viditelnost 10 km a více
Oblačno až skoro zataženo ve výšce 2000 ft

TAF: USPP 241355Z 2415/2515 12003G13MPS 9999 BKN020

Stav a předpovědi počasí z více než 4 000 letišť (zprávy METAR a TAF).

Červené a žluté tečky na mapě představují dostupné meteorologické stanice.

Když kurzor umístíte na tečku, zobrazí se název stanice.

Pak kliknutím zobrazíte stav a předpověď počasí.

Chcete-li změnit mapu, kliknutím na zelené tlačítko se znaménkem +mapu přiblížíte, kliknutím na zelené tlačítko se znaménkem – mapu oddálíte a kliknutím na zelené šipky přejdete na sousední mapy.


METAR-TAF: